Time;durP1;ratioP1;P1;durP2;ratioP2;P2;SDS_P1;SDS_P2;PMS_P1;PMS_P2;Temp;Humidity;BMP_temperature;BMP_pressure;BME280_temperature;BME280_humidity;BME280_pressure;Samples;Min_cycle;Max_cycle;Signal;HPM_P1;HPM_P2
2021/11/23 00:01:20;;;;;;;33.15;15.15;;;;;;;-1.79;100.00;103112.69;5183369;28;20473;-76
2021/11/23 00:03:51;;;;;;;40.78;15.95;;;;;;;-1.85;100.00;103118.97;5183336;28;20033;-77
2021/11/23 00:06:21;;;;;;;40.90;17.70;;;;;;;-1.87;100.00;103118.09;5183130;28;20426;-77
2021/11/23 00:08:52;;;;;;;36.85;16.73;;;;;;;-1.89;100.00;103119.91;5180354;28;20120;-76
2021/11/23 00:11:22;;;;;;;41.03;17.02;;;;;;;-1.95;100.00;103120.03;5162929;28;20038;-77
2021/11/23 00:13:53;;;;;;;31.88;15.88;;;;;;;-1.99;100.00;103117.50;5170891;28;20120;-77
2021/11/23 00:16:25;;;;;;;30.23;14.80;;;;;;;-2.08;100.00;103114.13;5183078;28;20032;-77
2021/11/23 00:18:55;;;;;;;32.92;15.60;;;;;;;-2.14;100.00;103109.00;5184407;28;20018;-77
2021/11/23 00:21:26;;;;;;;35.65;16.73;;;;;;;-2.18;100.00;103107.31;5183442;28;20036;-77
2021/11/23 00:23:56;;;;;;;35.58;16.83;;;;;;;-2.18;100.00;103114.34;5183960;28;20033;-76
2021/11/23 00:26:27;;;;;;;41.63;17.98;;;;;;;-2.20;100.00;103108.25;5183704;28;20046;-76
2021/11/23 00:28:58;;;;;;;33.40;16.90;;;;;;;-2.20;100.00;103110.91;5184002;28;20128;-77
2021/11/23 00:31:28;;;;;;;42.05;19.90;;;;;;;-2.21;100.00;103112.66;5183698;28;20108;-77
2021/11/23 00:33:59;;;;;;;31.48;16.88;;;;;;;-2.16;100.00;103117.81;5184342;28;20064;-77
2021/11/23 00:36:30;;;;;;;41.67;18.27;;;;;;;-2.12;100.00;103133.50;5182291;28;20441;-77
2021/11/23 00:39:01;;;;;;;37.22;16.23;;;;;;;-2.13;100.00;103115.13;5183605;28;20057;-77
2021/11/23 00:41:31;;;;;;;37.15;17.60;;;;;;;-2.15;100.00;103124.81;5183522;28;20122;-77
2021/11/23 00:44:02;;;;;;;39.17;17.88;;;;;;;-2.17;100.00;103122.19;5183775;28;20021;-77
2021/11/23 00:46:32;;;;;;;34.97;16.50;;;;;;;-2.17;100.00;103122.19;5183342;28;20084;-76
2021/11/23 00:49:03;;;;;;;35.80;16.60;;;;;;;-2.20;100.00;103124.91;5183657;28;20116;-77
2021/11/23 00:51:33;;;;;;;32.33;16.00;;;;;;;-2.26;100.00;103119.78;5182407;28;20025;-76
2021/11/23 00:54:04;;;;;;;33.67;14.65;;;;;;;-2.30;100.00;103114.59;5182342;28;20068;-77
2021/11/23 00:56:35;;;;;;;31.63;14.23;;;;;;;-2.35;100.00;103112.03;5183436;28;20084;-77
2021/11/23 00:59:05;;;;;;;29.90;15.50;;;;;;;-2.40;100.00;103109.50;5182024;28;20033;-77
2021/11/23 01:01:36;;;;;;;29.88;14.43;;;;;;;-2.43;100.00;103106.03;5183508;28;20116;-77
2021/11/23 01:04:07;;;;;;;31.73;15.60;;;;;;;-2.49;100.00;103101.78;5187401;28;20061;-78
2021/11/23 01:06:38;;;;;;;29.38;14.70;;;;;;;-2.47;100.00;103099.97;5187515;28;20057;-78
2021/11/23 01:09:08;;;;;;;32.67;14.73;;;;;;;-2.45;100.00;103106.09;5183213;28;20030;-78
2021/11/23 01:11:39;;;;;;;35.33;15.93;;;;;;;-2.38;100.00;103105.06;5184558;28;20163;-77
2021/11/23 01:14:09;;;;;;;36.75;16.23;;;;;;;-2.32;100.00;103111.97;5176115;28;20049;-77
2021/11/23 01:16:44;;;;;;;33.40;17.33;;;;;;;-2.33;100.00;103110.25;5183971;28;20026;-78
2021/11/23 01:19:16;;;;;;;33.17;17.75;;;;;;;-2.36;100.00;103105.03;5183952;28;20033;-78
2021/11/23 01:21:46;;;;;;;40.55;17.33;;;;;;;-2.38;100.00;103099.81;5184116;28;20584;-78
2021/11/23 01:24:17;;;;;;;41.63;18.08;;;;;;;-2.36;100.00;103087.53;5183898;28;20101;-78
2021/11/23 01:26:47;;;;;;;45.55;20.05;;;;;;;-2.30;100.00;103094.41;5183847;28;20125;-77
2021/11/23 01:29:18;;;;;;;36.85;16.25;;;;;;;-2.32;100.00;103093.56;5182620;28;20033;-76
2021/11/23 01:31:48;;;;;;;32.83;14.32;;;;;;;-2.39;100.00;103086.69;5182253;28;20021;-78
2021/11/23 01:34:20;;;;;;;35.55;17.58;;;;;;;-2.46;100.00;103082.44;5188019;28;20413;-78
2021/11/23 01:36:50;;;;;;;32.67;16.05;;;;;;;-2.51;100.00;103081.66;5188628;28;20113;-77
2021/11/23 01:39:20;;;;;;;33.47;16.48;;;;;;;-2.54;100.00;103084.34;5188346;28;20072;-78
2021/11/23 01:41:51;;;;;;;41.38;16.63;;;;;;;-2.56;100.00;103080.88;5187957;28;20104;-77
2021/11/23 01:44:22;;;;;;;37.03;17.92;;;;;;;-2.58;100.00;103088.78;5186788;28;20101;-76
2021/11/23 01:46:52;;;;;;;32.03;16.70;;;;;;;-2.61;100.00;103071.31;5187211;28;20022;-78
2021/11/23 01:49:23;;;;;;;33.88;16.15;;;;;;;-2.62;100.00;103081.84;5186429;28;20477;-78
2021/11/23 01:51:54;;;;;;;39.72;16.85;;;;;;;-2.62;100.00;103087.97;5170180;28;20026;-78
2021/11/23 01:54:24;;;;;;;40.53;18.17;;;;;;;-2.61;100.00;103091.50;5183350;28;20080;-77
2021/11/23 01:56:55;;;;;;;39.42;17.75;;;;;;;-2.59;100.00;103089.69;5182294;28;20029;-77
2021/11/23 01:59:26;;;;;;;40.42;18.50;;;;;;;-2.53;100.00;103092.19;5162380;28;20038;-77
2021/11/23 02:01:56;;;;;;;48.05;19.40;;;;;;;-2.47;100.00;103085.97;5163173;28;20065;-78
2021/11/23 02:04:27;;;;;;;37.75;17.27;;;;;;;-2.49;100.00;103080.75;5162190;28;20505;-78
2021/11/23 02:06:57;;;;;;;41.70;16.42;;;;;;;-2.54;100.00;103079.09;5163418;28;20113;-77
2021/11/23 02:09:32;;;;;;;35.65;16.13;;;;;;;-2.62;100.00;103081.84;5183355;28;20022;-78
2021/11/23 02:12:18;;;;;;;36.47;15.85;;;;;;;-2.64;100.00;103081.00;5183426;28;20017;-79
2021/11/23 02:14:49;;;;;;;28.02;13.75;;;;;;;-2.72;100.00;103083.75;5174991;28;20060;-82
2021/11/23 02:17:29;;;;;;;30.20;15.32;;;;;;;-2.78;100.00;103083.00;5183031;28;20562;-77
2021/11/23 02:20:01;;;;;;;33.55;17.48;;;;;;;-2.82;100.00;103078.69;5182948;28;20147;-78
2021/11/23 02:22:32;;;;;;;42.63;18.73;;;;;;;-2.85;100.00;103084.03;5183512;28;20505;-77
2021/11/23 02:25:03;;;;;;;42.22;17.60;;;;;;;-2.85;100.00;103084.03;5183088;28;20174;-78
2021/11/23 02:27:34;;;;;;;35.70;17.30;;;;;;;-2.87;100.00;103073.50;5182860;28;20393;-78
2021/11/23 02:30:07;;;;;;;40.55;18.98;;;;;;;-2.86;100.00;103072.66;5181607;28;20674;-78
2021/11/23 02:32:53;;;;;;;37.17;18.58;;;;;;;-2.87;100.00;103073.50;5183198;28;20487;-78
2021/11/23 02:35:24;;;;;;;34.15;16.35;;;;;;;-2.90;100.00;103070.97;5182901;28;20100;-78
2021/11/23 02:37:56;;;;;;;38.20;17.60;;;;;;;-2.91;100.00;103080.59;5183326;28;20576;-78
2021/11/23 02:40:26;;;;;;;42.88;18.35;;;;;;;-2.91;100.00;103071.84;5183127;28;20052;-77
2021/11/23 02:42:58;;;;;;;43.97;16.83;;;;;;;-2.93;100.00;103071.84;5183007;28;20412;-78
2021/11/23 02:45:28;;;;;;;36.40;17.23;;;;;;;-2.93;100.00;103073.63;5169055;28;20487;-78
2021/11/23 02:48:00;;;;;;;41.85;19.00;;;;;;;-2.95;100.00;103067.53;5186402;28;20108;-78
2021/11/23 02:50:31;;;;;;;34.10;17.40;;;;;;;-2.95;100.00;103062.28;5185703;28;20033;-78
2021/11/23 02:53:02;;;;;;;41.15;17.77;;;;;;;-2.92;100.00;103067.47;5186500;28;20030;-77
2021/11/23 02:55:35;;;;;;;35.88;15.65;;;;;;;-2.90;100.00;103066.56;5185338;28;20069;-78
2021/11/23 02:58:07;;;;;;;36.22;16.85;;;;;;;-2.85;100.00;103070.88;5186146;28;20072;-78
2021/11/23 03:00:39;;;;;;;40.13;17.70;;;;;;;-2.80;100.00;103071.66;5186512;28;20528;-78
2021/11/23 03:03:11;;;;;;;43.58;18.25;;;;;;;-2.80;100.00;103074.31;5185274;28;20033;-78
2021/11/23 03:05:42;;;;;;;35.38;17.80;;;;;;;-2.82;100.00;103073.44;5186008;28;20037;-78
2021/11/23 03:08:13;;;;;;;42.28;19.60;;;;;;;-2.85;100.00;103071.75;5186090;28;20022;-78
2021/11/23 03:10:43;;;;;;;43.38;18.48;;;;;;;-2.89;100.00;103063.03;5186407;28;20041;-78
2021/11/23 03:13:15;;;;;;;36.05;18.38;;;;;;;-2.91;100.00;103059.59;5168558;28;20053;-76
2021/11/23 03:15:46;;;;;;;39.05;17.42;;;;;;;-2.94;100.00;103061.38;5165138;28;20076;-78
2021/11/23 03:18:17;;;;;;;39.92;17.52;;;;;;;-2.98;100.00;103057.06;5164891;28;20077;-77
2021/11/23 03:20:47;;;;;;;48.45;19.60;;;;;;;-2.99;100.00;103068.47;5165775;28;20033;-78
2021/11/23 03:23:19;;;;;;;35.38;16.92;;;;;;;-3.00;100.00;103067.63;5164152;28;20548;-78
2021/11/23 03:25:49;;;;;;;46.17;20.30;;;;;;;-2.95;100.00;103064.91;5164936;28;20057;-78
2021/11/23 03:28:20;;;;;;;45.78;20.05;;;;;;;-2.85;100.00;103063.88;5164892;28;20076;-78
2021/11/23 03:30:51;;;;;;;40.95;18.80;;;;;;;-2.80;100.00;103072.53;5165167;28;20099;-77
2021/11/23 03:33:22;;;;;;;46.20;19.90;;;;;;;-2.77;100.00;103068.97;5163911;28;20018;-78
2021/11/23 03:35:52;;;;;;;48.30;21.58;;;;;;;-2.59;100.00;103071.28;5165027;28;20112;-78
2021/11/23 03:38:24;;;;;;;53.65;21.55;;;;;;;-2.45;100.00;103069.28;5163595;28;20486;-77
2021/11/23 03:40:54;;;;;;;48.38;20.95;;;;;;;-2.52;100.00;103072.03;5164459;28;20125;-77
2021/11/23 03:43:25;;;;;;;45.10;18.98;;;;;;;-2.61;100.00;103059.94;5164025;28;20473;-77
2021/11/23 03:45:55;;;;;;;48.08;19.08;;;;;;;-2.68;100.00;103055.69;5164404;28;20544;-77
2021/11/23 03:48:26;;;;;;;42.80;19.63;;;;;;;-2.74;100.00;103067.16;5163377;28;20448;-78
2021/11/23 03:50:56;;;;;;;38.45;18.95;;;;;;;-2.79;100.00;103062.88;5163482;28;20117;-78
2021/11/23 03:53:27;;;;;;;44.33;18.58;;;;;;;-2.78;100.00;103054.09;5164400;28;20038;-78
2021/11/23 03:55:57;;;;;;;41.38;17.73;;;;;;;-2.75;100.00;103061.94;5165910;28;20449;-76
2021/11/23 03:58:27;;;;;;;38.47;18.40;;;;;;;-2.74;100.00;103066.31;5183977;28;20488;-77
2021/11/23 04:00:58;;;;;;;45.30;18.88;;;;;;;-2.71;100.00;103064.50;5185598;28;20390;-79
2021/11/23 04:03:28;;;;;;;40.35;19.52;;;;;;;-2.63;100.00;103059.97;5185748;28;20064;-78
2021/11/23 04:06:00;;;;;;;45.88;20.45;;;;;;;-2.54;100.00;103063.31;5184836;28;20054;-78
2021/11/23 04:08:31;;;;;;;49.00;21.08;;;;;;;-2.49;100.00;103059.72;5180347;28;20022;-78
2021/11/23 04:11:02;;;;;;;50.65;20.85;;;;;;;-2.44;100.00;103057.88;5184569;28;20105;-77
2021/11/23 04:13:32;;;;;;;48.17;22.33;;;;;;;-2.40;100.00;103056.91;5176768;28;20113;-78
2021/11/23 04:16:04;;;;;;;39.55;17.70;;;;;;;-2.41;100.00;103063.06;5184289;28;20034;-78
2021/11/23 04:18:35;;;;;;;44.92;19.00;;;;;;;-2.42;100.00;103066.56;5184487;28;20029;-78
2021/11/23 04:21:05;;;;;;;37.15;18.23;;;;;;;-2.48;100.00;103071.94;5184431;28;20029;-78
2021/11/23 04:23:36;;;;;;;44.72;18.25;;;;;;;-2.61;100.00;103068.69;5183958;28;20044;-77
2021/11/23 04:26:06;;;;;;;38.58;17.00;;;;;;;-2.68;100.00;103066.19;5185970;28;20030;-77
2021/11/23 04:28:37;;;;;;;45.15;18.42;;;;;;;-2.73;100.00;103070.66;5186232;28;20092;-78
2021/11/23 04:31:08;;;;;;;41.25;18.40;;;;;;;-2.78;100.00;103065.47;5188010;28;20026;-77
2021/11/23 04:33:38;;;;;;;42.25;18.83;;;;;;;-2.77;100.00;103066.34;5185425;28;20022;-77
2021/11/23 04:36:09;;;;;;;41.38;20.48;;;;;;;-2.74;100.00;103058.41;5184673;28;20096;-77
2021/11/23 04:38:39;;;;;;;39.50;20.35;;;;;;;-2.71;100.00;103063.59;5184999;28;20103;-77
2021/11/23 04:41:10;;;;;;;39.88;18.98;;;;;;;-2.67;100.00;103063.53;5163871;28;20038;-77
2021/11/23 04:43:40;;;;;;;41.42;18.38;;;;;;;-2.64;100.00;103052.09;5163723;28;20065;-76
2021/11/23 04:46:11;;;;;;;42.22;20.15;;;;;;;-2.57;100.00;103056.34;5163598;28;20141;-78
2021/11/23 04:48:41;;;;;;;45.55;20.38;;;;;;;-2.44;100.00;103063.13;5165015;28;20026;-78
2021/11/23 04:51:12;;;;;;;44.03;21.05;;;;;;;-2.32;100.00;103061.16;5164855;28;20030;-78
2021/11/23 04:53:43;;;;;;;48.35;19.15;;;;;;;-2.22;100.00;103054.81;5163617;28;20030;-77
2021/11/23 04:56:14;;;;;;;40.72;20.10;;;;;;;-2.13;100.00;103057.28;5164326;28;20022;-78
2021/11/23 04:58:45;;;;;;;39.58;19.08;;;;;;;-2.06;100.00;103056.22;5164354;28;20193;-77
2021/11/23 05:01:15;;;;;;;45.42;19.35;;;;;;;-2.02;100.00;103057.91;5165001;28;20157;-77
2021/11/23 05:03:46;;;;;;;47.75;19.02;;;;;;;-1.99;100.00;103057.00;5165348;28;20500;-78
2021/11/23 05:06:16;;;;;;;39.90;17.70;;;;;;;-1.92;100.00;103059.44;5164500;28;20501;-78
2021/11/23 05:08:47;;;;;;;42.70;18.48;;;;;;;-1.93;100.00;103054.22;5181346;28;20026;-77
2021/11/23 05:11:18;;;;;;;43.75;21.15;;;;;;;-1.88;100.00;103044.47;5185705;28;20042;-78
2021/11/23 05:13:48;;;;;;;41.45;20.13;;;;;;;-1.83;100.00;103042.63;5181690;28;20565;-78
2021/11/23 05:16:18;;;;;;;50.67;21.00;;;;;;;-1.78;100.00;103046.00;5177742;28;20033;-77
2021/11/23 05:18:49;;;;;;;41.38;20.25;;;;;;;-1.73;100.00;103053.81;5166331;28;20070;-78
2021/11/23 05:21:19;;;;;;;44.55;20.63;;;;;;;-1.72;100.00;103050.28;5176407;28;20034;-76
2021/11/23 05:23:50;;;;;;;45.75;20.60;;;;;;;-1.71;100.00;103055.50;5186058;28;20007;-76
2021/11/23 05:26:20;;;;;;;44.47;20.40;;;;;;;-1.68;100.00;103055.44;5185812;28;20022;-77
2021/11/23 05:28:51;;;;;;;48.65;22.52;;;;;;;-1.62;100.00;103057.06;5169568;28;20030;-78
2021/11/23 05:31:21;;;;;;;43.17;22.08;;;;;;;-1.56;100.00;103059.56;5162917;28;20053;-77
2021/11/23 05:33:52;;;;;;;44.83;20.98;;;;;;;-1.46;100.00;103055.81;5165964;28;20030;-78
2021/11/23 05:36:22;;;;;;;44.38;20.42;;;;;;;-1.37;100.00;103060.00;5149759;28;20026;-78
2021/11/23 05:38:54;;;;;;;46.58;20.52;;;;;;;-1.36;100.00;103062.59;5166379;28;20122;-78
2021/11/23 05:41:25;;;;;;;45.28;21.60;;;;;;;-1.32;100.00;103059.00;5164393;28;20537;-78
2021/11/23 05:43:56;;;;;;;39.30;19.50;;;;;;;-1.27;100.00;103060.66;5161814;28;20485;-77
2021/11/23 05:46:26;;;;;;;42.75;20.27;;;;;;;-1.22;100.00;103066.69;5162797;28;20034;-77
2021/11/23 05:48:57;;;;;;;49.90;24.42;;;;;;;-1.17;100.00;103068.31;5161930;28;20077;-77
2021/11/23 05:51:28;;;;;;;53.20;22.88;;;;;;;-1.10;100.00;103066.41;5162974;28;20026;-78
2021/11/23 05:53:58;;;;;;;48.83;22.67;;;;;;;-1.05;100.00;103060.13;5162662;28;20026;-77
2021/11/23 05:56:29;;;;;;;42.42;20.80;;;;;;;-1.01;100.00;103065.31;5162853;28;20057;-78
2021/11/23 05:58:59;;;;;;;43.28;20.27;;;;;;;-0.98;100.00;103057.34;5161805;28;20026;-78
2021/11/23 06:01:30;;;;;;;48.50;22.90;;;;;;;-0.95;100.00;103065.19;5165412;28;20073;-81
2021/11/23 06:04:01;;;;;;;45.30;21.15;;;;;;;-0.92;100.00;103058.03;5149696;28;20030;-80
2021/11/23 06:06:31;;;;;;;42.60;20.58;;;;;;;-0.87;100.00;103071.97;5146068;28;20118;-77
2021/11/23 06:09:05;;;;;;;45.25;22.13;;;;;;;-0.85;100.00;103067.53;5181514;28;20048;-77
2021/11/23 06:11:36;;;;;;;48.30;22.30;;;;;;;-0.79;100.00;103063.88;5183611;28;20101;-77
2021/11/23 06:14:07;;;;;;;43.03;20.48;;;;;;;-0.75;100.00;103069.91;5175800;28;20411;-76
2021/11/23 06:16:38;;;;;;;50.78;22.60;;;;;;;-0.72;100.00;103068.06;5183035;28;20044;-78
2021/11/23 06:19:08;;;;;;;42.42;20.48;;;;;;;-0.69;100.00;103068.00;5184784;28;20048;-78
2021/11/23 06:21:40;;;;;;;42.08;21.15;;;;;;;-0.64;100.00;103070.53;5174064;28;20022;-81
2021/11/23 06:24:11;;;;;;;46.25;21.75;;;;;;;-0.60;100.00;103072.19;5187622;28;20112;-81
2021/11/23 06:26:42;;;;;;;44.95;20.92;;;;;;;-0.47;100.00;103073.56;5187248;28;20108;-78
2021/11/23 06:29:12;;;;;;;43.25;19.83;;;;;;;-0.45;100.00;103079.69;5188007;28;20116;-78
2021/11/23 06:31:42;;;;;;;43.85;22.05;;;;;;;-0.45;100.00;103079.69;5188261;28;20417;-81
2021/11/23 06:34:13;;;;;;;46.47;20.65;;;;;;;-0.43;100.00;103079.66;5189061;28;20596;-76
2021/11/23 06:36:44;;;;;;;47.42;22.40;;;;;;;-0.40;100.00;103075.16;5186758;28;20061;-77
2021/11/23 06:39:14;;;;;;;47.17;23.48;;;;;;;-0.37;100.00;103076.84;5188645;28;20057;-80
2021/11/23 06:41:45;;;;;;;53.92;23.23;;;;;;;-0.35;100.00;103075.00;5167729;28;20432;-80
2021/11/23 06:44:15;;;;;;;45.55;22.10;;;;;;;-0.33;100.00;103086.41;5181205;28;20271;-79
2021/11/23 06:46:46;;;;;;;45.83;23.05;;;;;;;-0.28;100.00;103095.06;5170619;28;20036;-78
2021/11/23 06:49:16;;;;;;;51.53;21.50;;;;;;;-0.27;100.00;103084.44;5167748;28;20030;-79
2021/11/23 06:51:47;;;;;;;46.47;21.48;;;;;;;-0.25;100.00;103084.44;5167601;28;20053;-80
2021/11/23 06:54:17;;;;;;;47.58;22.42;;;;;;;-0.23;100.00;103093.16;5149938;28;20061;-79
2021/11/23 06:56:53;;;;;;;43.90;22.42;;;;;;;-0.20;100.00;103092.19;5167333;28;20027;-78
2021/11/23 06:59:24;;;;;;;51.08;22.77;;;;;;;-0.18;100.00;103090.41;5167459;28;20025;-78
2021/11/23 07:01:54;;;;;;;43.72;21.67;;;;;;;-0.18;100.00;103087.75;5166828;28;20022;-79
2021/11/23 07:04:25;;;;;;;49.08;22.83;;;;;;;-0.15;100.00;103093.81;5168194;28;20120;-78
2021/11/23 07:06:55;;;;;;;46.08;22.88;;;;;;;-0.09;100.00;103096.28;5168703;28;20038;-79
2021/11/23 07:09:26;;;;;;;48.65;21.77;;;;;;;-0.06;100.00;103090.91;5187819;28;20022;-78
2021/11/23 07:11:56;;;;;;;48.20;22.65;;;;;;;-0.04;100.00;103090.88;5170573;28;20460;-78
2021/11/23 07:14:27;;;;;;;53.25;23.60;;;;;;;-0.02;100.00;103091.69;5170403;28;20025;-79
2021/11/23 07:16:57;;;;;;;51.45;22.85;;;;;;;-0.01;100.00;103094.28;5186642;28;20392;-79
2021/11/23 07:19:27;;;;;;;50.13;22.45;;;;;;;0.04;100.00;103096.78;5186703;28;20432;-79
2021/11/23 07:21:58;;;;;;;46.47;22.25;;;;;;;0.11;100.00;103098.38;5188610;28;20061;-78
2021/11/23 07:24:29;;;;;;;51.47;22.60;;;;;;;0.15;100.00;103099.13;5186982;28;20404;-79
2021/11/23 07:26:59;;;;;;;45.17;22.98;;;;;;;0.18;100.00;103110.47;5187120;28;20029;-80
2021/11/23 07:29:30;;;;;;;44.53;21.98;;;;;;;0.25;100.00;103116.44;5179165;28;20294;-79
2021/11/23 07:32:00;;;;;;;51.28;23.48;;;;;;;0.28;100.00;103118.13;5184116;28;20022;-79
2021/11/23 07:34:31;;;;;;;43.25;22.45;;;;;;;0.35;100.00;103114.38;5186129;28;20128;-79
2021/11/23 07:37:01;;;;;;;46.38;23.48;;;;;;;0.42;100.00;103113.31;5185411;28;20018;-79
2021/11/23 07:39:32;;;;;;;42.55;21.58;;;;;;;0.41;100.00;103114.22;5186769;28;20113;-82
2021/11/23 07:42:04;;;;;;;45.85;21.05;;;;;;;0.40;100.00;103115.13;5187010;28;20463;-81
2021/11/23 07:44:35;;;;;;;44.22;22.00;;;;;;;0.42;100.00;103124.75;5186245;28;20026;-79
2021/11/23 07:47:06;;;;;;;42.47;21.85;;;;;;;0.46;100.00;103125.53;5185764;28;20056;-78
2021/11/23 07:49:36;;;;;;;51.67;23.13;;;;;;;0.49;100.00;103128.91;5186612;28;20046;-78
2021/11/23 07:52:07;;;;;;;44.97;20.73;;;;;;;0.54;100.00;103126.13;5186459;28;20104;-78
2021/11/23 07:54:37;;;;;;;53.53;23.52;;;;;;;0.60;100.00;103125.94;5186587;28;20036;-79
2021/11/23 07:57:08;;;;;;;51.80;22.95;;;;;;;0.63;100.00;103132.94;5186725;28;20060;-78
2021/11/23 07:59:39;;;;;;;45.70;23.25;;;;;;;0.65;100.00;103132.00;5180215;28;20080;-78
2021/11/23 08:02:09;;;;;;;48.03;23.80;;;;;;;0.71;100.00;103136.22;5166496;28;20026;-78
2021/11/23 08:04:40;;;;;;;56.85;24.45;;;;;;;0.74;100.00;103144.03;5166645;28;20073;-78
2021/11/23 08:07:10;;;;;;;49.70;24.08;;;;;;;0.75;100.00;103136.09;5181889;28;20018;-78
2021/11/23 08:09:43;;;;;;;45.22;23.63;;;;;;;0.82;100.00;103143.81;5175928;28;20033;-78
2021/11/23 08:12:13;;;;;;;49.40;25.00;;;;;;;0.88;100.00;103136.56;5152625;28;20077;-79
2021/11/23 08:14:44;;;;;;;49.75;23.58;;;;;;;0.96;100.00;103146.91;5188381;28;20033;-79
2021/11/23 08:17:14;;;;;;;49.65;23.42;;;;;;;1.00;100.00;103137.94;5186768;28;20022;-79
2021/11/23 08:19:45;;;;;;;49.78;23.80;;;;;;;1.07;100.00;103147.41;5188304;28;20065;-78
2021/11/23 08:22:16;;;;;;;47.75;24.13;;;;;;;1.14;100.00;103150.72;5188095;28;20022;-82
2021/11/23 08:24:47;;;;;;;55.30;25.20;;;;;;;1.17;100.00;103148.84;5170363;28;20061;-79
2021/11/23 08:27:17;;;;;;;47.55;21.90;;;;;;;1.27;100.00;103146.78;5188431;28;20133;-79
2021/11/23 08:29:48;;;;;;;47.50;22.30;;;;;;;1.35;100.00;103141.22;5187800;28;20036;-79
2021/11/23 08:32:18;;;;;;;47.17;23.08;;;;;;;1.40;100.00;103148.06;5186601;28;20485;-79
2021/11/23 08:34:49;;;;;;;42.88;21.88;;;;;;;1.47;100.00;103154.06;5187943;28;20040;-79
2021/11/23 08:37:19;;;;;;;46.70;22.05;;;;;;;1.48;100.00;103148.69;5188114;28;20026;-78
2021/11/23 08:39:50;;;;;;;45.33;21.63;;;;;;;1.49;100.00;103147.78;5188112;28;20018;-78
2021/11/23 08:42:21;;;;;;;46.22;21.65;;;;;;;1.55;100.00;103147.56;5185428;28;20057;-78
2021/11/23 08:44:53;;;;;;;46.88;21.35;;;;;;;1.59;100.00;103143.03;5188430;28;20038;-78
2021/11/23 08:47:23;;;;;;;41.72;21.52;;;;;;;1.65;100.00;103149.91;5188151;28;20075;-79
2021/11/23 08:49:56;;;;;;;43.00;22.83;;;;;;;1.69;100.00;103139.16;5187732;28;20499;-80
2021/11/23 08:52:26;;;;;;;48.80;20.92;;;;;;;1.70;100.00;103140.88;5185521;28;20041;-80
2021/11/23 08:54:57;;;;;;;44.53;21.50;;;;;;;1.73;100.00;103142.56;5184943;28;20588;-80
2021/11/23 08:57:27;;;;;;;47.17;22.27;;;;;;;1.77;100.00;103152.16;5181388;28;20037;-80
2021/11/23 09:00:25;;;;;;;46.72;20.92;;;;;;;1.83;100.00;103161.66;5165492;28;20101;-80
2021/11/23 09:02:53;;;;;;;47.75;23.83;;;;;;;1.87;100.00;103158.84;5176212;28;20042;-79
2021/11/23 09:05:24;;;;;;;49.70;23.90;;;;;;;1.93;100.00;103160.41;5174624;28;20512;-79
2021/11/23 09:07:56;;;;;;;48.88;23.90;;;;;;;1.97;100.00;103154.97;5172276;28;20025;-80
2021/11/23 09:10:29;;;;;;;48.28;22.88;;;;;;;2.03;100.00;103156.53;5182542;28;20026;-79
2021/11/23 09:13:00;;;;;;;53.53;24.50;;;;;;;2.02;100.00;103150.38;5175547;28;20022;-80
2021/11/23 09:15:31;;;;;;;53.53;25.48;;;;;;;2.08;100.00;103150.13;5182297;28;20699;-80
2021/11/23 09:18:03;;;;;;;51.78;23.73;;;;;;;2.20;100.00;103148.81;5171471;28;20014;-80
2021/11/23 09:20:35;;;;;;;41.75;22.48;;;;;;;2.21;100.00;103149.69;5183319;28;20030;-80
2021/11/23 09:23:09;;;;;;;39.30;21.85;;;;;;;2.18;100.00;103145.38;5171001;28;20038;-80
2021/11/23 09:25:41;;;;;;;51.43;21.80;;;;;;;2.24;100.00;103149.56;5182987;28;20025;-80
2021/11/23 09:28:12;;;;;;;46.63;23.02;;;;;;;2.28;100.00;103156.50;5180789;28;20281;-80
2021/11/23 09:30:43;;;;;;;43.13;22.35;;;;;;;2.33;100.00;103149.25;5173217;28;20033;-80
2021/11/23 09:33:15;;;;;;;44.55;22.52;;;;;;;2.41;100.00;103148.94;5183543;28;20036;-80
2021/11/23 09:35:46;;;;;;;44.78;21.10;;;;;;;2.46;100.00;103147.88;5171670;28;20045;-80
2021/11/23 09:38:17;;;;;;;45.38;22.58;;;;;;;2.51;100.00;103150.31;5181620;28;20026;-80
2021/11/23 09:40:47;;;;;;;53.70;22.70;;;;;;;2.53;100.00;103148.50;5183420;28;20033;-79
2021/11/23 09:43:20;;;;;;;51.35;23.35;;;;;;;2.59;100.00;103151.78;5169602;28;20489;-80
2021/11/23 09:45:52;;;;;;;57.95;24.75;;;;;;;2.64;100.00;103156.03;5182725;28;20075;-80
2021/11/23 09:48:22;;;;;;;45.28;23.05;;;;;;;2.72;100.00;103154.84;5173739;28;20166;-80
2021/11/23 09:50:53;;;;;;;42.47;21.77;;;;;;;2.79;100.00;103152.78;5165522;28;20026;-80
2021/11/23 09:53:24;;;;;;;40.00;21.15;;;;;;;2.85;100.00;103157.84;5181293;28;20026;-80
2021/11/23 09:55:55;;;;;;;46.83;23.60;;;;;;;2.91;100.00;103159.41;5170504;28;20025;-80
2021/11/23 09:58:27;;;;;;;42.33;20.55;;;;;;;2.99;100.00;103150.22;5183937;28;20022;-80
2021/11/23 10:01:04;;;;;;;43.58;22.63;;;;;;;3.06;100.00;103149.06;5165416;28;20085;-80
2021/11/23 10:03:36;;;;;;;41.70;21.40;;;;;;;3.14;100.00;103155.84;5162853;28;20034;-80
2021/11/23 10:06:19;;;;;;;40.30;21.13;;;;;;;3.23;100.00;103161.66;5170332;28;20069;-80
2021/11/23 10:08:53;;;;;;;46.33;21.25;;;;;;;3.30;100.00;103160.44;5183031;28;20080;-80
2021/11/23 10:11:27;;;;;;;43.70;21.63;;;;;;;3.40;100.00;103152.97;5183136;28;20029;-80
2021/11/23 10:14:01;;;;;;;43.25;19.98;;;;;;;3.44;100.00;103159.91;5174935;28;20085;-80
2021/11/23 10:16:39;;;;;;;46.58;19.92;;;;;;;3.53;100.00;103148.03;5176237;28;20034;-80
2021/11/23 10:19:12;;;;;;;46.22;21.45;;;;;;;3.65;100.00;103152.81;5162579;28;20038;-80
2021/11/23 10:21:50;;;;;;;46.35;21.30;;;;;;;3.80;100.00;103148.66;5180809;28;20030;-80
2021/11/23 10:24:22;;;;;;;48.72;21.88;;;;;;;3.94;100.00;103150.72;5172510;28;20026;-80
2021/11/23 10:26:56;;;;;;;39.10;19.83;;;;;;;4.02;100.00;103144.13;5166134;28;20030;-83
2021/11/23 10:29:29;;;;;;;58.30;23.00;;;;;;;4.00;100.00;103140.66;5167795;28;20494;-78
2021/11/23 10:32:01;;;;;;;55.72;23.55;;;;;;;4.05;100.00;103148.44;5162861;28;20101;-79
2021/11/23 10:34:33;;;;;;;199.63;60.15;;;;;;;4.11;100.00;103145.50;5175899;28;20041;-79
2021/11/23 10:37:04;;;;;;;50.70;21.73;;;;;;;4.12;100.00;103148.13;5182259;28;20018;-79
2021/11/23 10:39:34;;;;;;;56.53;24.15;;;;;;;4.14;100.00;103145.38;5181303;28;20026;-79
2021/11/23 10:42:06;;;;;;;38.20;17.98;;;;;;;4.32;100.00;103152.53;5181138;28;20092;-79
2021/11/23 10:44:36;;;;;;;38.40;19.33;;;;;;;4.31;100.00;103142.81;5181901;28;20026;-79
2021/11/23 10:47:07;;;;;;;42.42;20.17;;;;;;;4.33;100.00;103143.63;5181885;28;20034;-79
2021/11/23 10:49:43;;;;;;;35.28;18.85;;;;;;;4.31;100.00;103136.63;5182448;28;20041;-79
2021/11/23 10:52:36;;;;;;;42.65;20.40;;;;;;;4.23;100.00;103138.78;5181993;28;20045;-79
2021/11/23 10:55:31;;;;;;;45.90;22.65;;;;;;;4.25;100.00;103137.78;5181208;28;20120;-79
2021/11/23 10:58:04;;;;;;;42.22;21.25;;;;;;;4.25;100.00;103136.91;5180435;28;20393;-79
2021/11/23 11:00:38;;;;;;;46.10;22.85;;;;;;;4.28;100.00;103137.66;5181511;28;20057;-79
2021/11/23 11:03:10;;;;;;;49.30;22.10;;;;;;;4.35;100.00;103116.97;5177505;28;20037;-79
2021/11/23 11:05:41;;;;;;;47.95;22.58;;;;;;;4.38;100.00;103124.81;5182041;28;20061;-79
2021/11/23 11:08:14;;;;;;;47.08;23.67;;;;;;;4.47;100.00;103115.53;5180064;28;20072;-79
2021/11/23 11:10:45;;;;;;;53.10;24.92;;;;;;;4.63;100.00;103120.06;5165125;28;20088;-79
2021/11/23 11:13:21;;;;;;;48.63;21.88;;;;;;;4.80;100.00;103113.09;5179026;28;20025;-79
2021/11/23 11:15:53;;;;;;;56.47;22.65;;;;;;;4.88;100.00;103097.63;5173481;28;20088;-79
2021/11/23 11:18:25;;;;;;;50.72;22.80;;;;;;;5.01;100.00;103100.53;5189236;28;20021;-78
2021/11/23 11:21:00;;;;;;;52.72;24.67;;;;;;;5.20;100.00;103096.03;5186254;28;20014;-78
2021/11/23 11:23:37;;;;;;;43.83;20.33;;;;;;;5.22;100.00;103094.19;5176032;28;20030;-79